createdAt,value
2017-07-30T00:01:07.770Z,92.20
2017-07-30T00:03:35.923Z,92.30
2017-07-30T00:06:04.104Z,92.30
2017-07-30T00:08:32.299Z,92.60
2017-07-30T00:11:00.469Z,92.90
2017-07-30T00:13:28.648Z,93.10
2017-07-30T00:15:56.864Z,93.20
2017-07-30T00:18:25.014Z,93.10
2017-07-30T00:20:53.192Z,93.10
2017-07-30T00:23:21.383Z,93.00
2017-07-30T00:25:49.548Z,92.90
2017-07-30T00:28:17.721Z,92.90
2017-07-30T00:30:45.974Z,92.90
2017-07-30T00:33:14.147Z,93.00
2017-07-30T00:35:42.306Z,92.90
2017-07-30T00:38:10.512Z,92.80
2017-07-30T00:40:38.691Z,93.00
2017-07-30T00:43:06.865Z,92.90
2017-07-30T00:45:35.047Z,92.90
2017-07-30T00:48:03.222Z,92.50
2017-07-30T00:50:31.382Z,92.70
2017-07-30T00:52:59.589Z,92.60
2017-07-30T00:55:28.509Z,92.90
2017-07-30T00:57:56.678Z,92.50
2017-07-30T01:00:24.882Z,92.40
2017-07-30T01:02:53.030Z,92.30
2017-07-30T01:05:21.181Z,92.30
2017-07-30T01:07:50.133Z,92.30
2017-07-30T01:10:18.294Z,92.30
2017-07-30T01:12:46.467Z,92.20
2017-07-30T01:15:14.663Z,92.20
2017-07-30T01:17:42.821Z,92.20
2017-07-30T01:20:10.975Z,92.10
2017-07-30T01:22:39.149Z,92.00
2017-07-30T01:25:08.174Z,92.00
2017-07-30T01:27:36.368Z,92.10
2017-07-30T01:30:04.584Z,92.40
2017-07-30T01:32:32.753Z,92.40
2017-07-30T01:35:00.914Z,92.30
2017-07-30T01:37:29.901Z,92.30
2017-07-30T01:39:58.054Z,92.30
2017-07-30T01:42:26.218Z,92.40
2017-07-30T01:44:54.741Z,92.30
2017-07-30T01:47:23.723Z,92.40
2017-07-30T01:49:51.883Z,92.30
2017-07-30T01:52:20.086Z,92.30
2017-07-30T01:54:49.029Z,92.70
2017-07-30T01:57:17.220Z,92.70
2017-07-30T01:59:45.426Z,92.70
2017-07-30T02:02:14.349Z,92.70
2017-07-30T02:04:42.521Z,92.70
2017-07-30T02:07:10.730Z,92.80
2017-07-30T02:09:38.884Z,92.80
2017-07-30T02:12:07.069Z,92.90
2017-07-30T02:14:35.277Z,93.00
2017-07-30T02:17:03.457Z,92.90
2017-07-30T02:19:32.383Z,92.70
2017-07-30T02:22:00.576Z,93.00
2017-07-30T02:24:28.753Z,92.80
2017-07-30T02:26:56.941Z,92.80
2017-07-30T02:29:25.155Z,92.90
2017-07-30T02:31:54.078Z,93.20
2017-07-30T02:34:22.234Z,93.20
2017-07-30T02:36:51.186Z,92.90
2017-07-30T02:39:19.347Z,92.90
2017-07-30T02:41:47.508Z,92.90
2017-07-30T02:44:15.694Z,92.90
2017-07-30T02:46:43.847Z,92.80
2017-07-30T02:49:12.017Z,92.80
2017-07-30T02:51:40.212Z,93.20
2017-07-30T02:54:08.388Z,93.60
2017-07-30T02:56:36.537Z,93.50
2017-07-30T02:59:04.742Z,93.40
2017-07-30T03:01:32.918Z,93.40
2017-07-30T03:04:01.080Z,93.30
2017-07-30T03:06:29.294Z,93.30
2017-07-30T03:08:57.454Z,93.50
2017-07-30T03:11:25.632Z,93.50
2017-07-30T03:13:53.815Z,93.50
2017-07-30T03:16:21.994Z,93.40
2017-07-30T03:18:50.145Z,93.40
2017-07-30T03:21:18.326Z,93.30
2017-07-30T03:23:46.481Z,93.50
2017-07-30T03:26:14.663Z,93.90
2017-07-30T03:28:42.865Z,93.90
2017-07-30T03:31:11.082Z,93.90
2017-07-30T03:33:39.237Z,94.10
2017-07-30T03:36:08.203Z,94.20
2017-07-30T03:38:36.376Z,94.20
2017-07-30T03:41:04.548Z,94.20
2017-07-30T03:43:32.738Z,94.00
2017-07-30T03:46:00.906Z,94.10
2017-07-30T03:48:29.075Z,93.90
2017-07-30T03:50:57.273Z,93.80
2017-07-30T03:53:26.215Z,93.80
2017-07-30T03:55:54.370Z,94.20
2017-07-30T03:58:22.553Z,93.70
2017-07-30T04:00:50.710Z,93.80
2017-07-30T04:03:18.884Z,93.80
2017-07-30T04:05:47.069Z,93.80
2017-07-30T04:08:15.253Z,93.60
2017-07-30T04:10:43.426Z,93.50
2017-07-30T04:13:11.618Z,93.40
2017-07-30T04:15:39.789Z,93.50
2017-07-30T04:18:07.942Z,93.70
2017-07-30T04:20:36.141Z,93.70
2017-07-30T04:23:04.295Z,93.60
2017-07-30T04:25:32.445Z,93.60
2017-07-30T04:28:01.390Z,93.40
2017-07-30T04:30:29.546Z,93.40
2017-07-30T04:32:57.694Z,93.40
2017-07-30T04:35:25.889Z,93.60
2017-07-30T04:37:54.043Z,93.50
2017-07-30T04:40:22.207Z,93.60
2017-07-30T04:42:51.165Z,93.60
2017-07-30T04:45:19.315Z,93.60
2017-07-30T04:47:47.493Z,93.70
2017-07-30T04:50:15.681Z,93.30
2017-07-30T04:52:43.831Z,93.20
2017-07-30T04:55:12.036Z,93.00
2017-07-30T04:57:40.237Z,93.10
2017-07-30T05:00:08.391Z,92.90
2017-07-30T05:02:36.560Z,92.80
2017-07-30T05:05:04.764Z,92.70
2017-07-30T05:07:33.700Z,93.00
2017-07-30T05:10:01.869Z,93.00
2017-07-30T05:12:30.047Z,93.00
2017-07-30T05:14:58.195Z,92.90
2017-07-30T05:17:26.349Z,93.00
2017-07-30T05:19:54.537Z,93.00
2017-07-30T05:22:23.474Z,92.60
2017-07-30T05:24:51.622Z,92.60
2017-07-30T05:27:19.818Z,92.50
2017-07-30T05:29:47.997Z,92.40
2017-07-30T05:32:16.171Z,92.30
2017-07-30T05:34:44.366Z,92.40
2017-07-30T05:37:12.529Z,92.30
2017-07-30T05:39:40.683Z,92.30
2017-07-30T05:42:08.863Z,92.40
2017-07-30T05:44:37.028Z,92.20
2017-07-30T05:47:05.201Z,92.00
2017-07-30T05:49:33.374Z,91.60
2017-07-30T05:52:01.522Z,91.50
2017-07-30T05:54:30.440Z,90.90
2017-07-30T05:56:58.630Z,90.90
2017-07-30T05:59:26.793Z,90.90
2017-07-30T06:01:54.938Z,90.30
2017-07-30T06:04:23.878Z,90.60
2017-07-30T06:06:52.049Z,90.60
2017-07-30T06:09:20.219Z,90.20
2017-07-30T06:11:48.417Z,90.10
2017-07-30T06:14:17.470Z,90.00
2017-07-30T06:16:45.637Z,89.70
2017-07-30T06:19:13.833Z,90.00
2017-07-30T06:21:42.001Z,89.70
2017-07-30T06:24:10.169Z,89.40
2017-07-30T06:26:38.345Z,88.90
2017-07-30T06:29:06.521Z,88.60
2017-07-30T06:31:34.718Z,89.10
2017-07-30T06:34:02.907Z,88.40
2017-07-30T06:36:31.073Z,88.40
2017-07-30T06:38:59.219Z,88.60
2017-07-30T06:41:27.419Z,88.10
2017-07-30T06:43:55.581Z,87.50
2017-07-30T06:46:23.759Z,87.60
2017-07-30T06:48:51.952Z,88.20
2017-07-30T06:51:20.120Z,89.50
2017-07-30T06:53:48.297Z,90.30
2017-07-30T06:56:16.486Z,90.80
2017-07-30T06:58:44.657Z,91.10
2017-07-30T07:01:12.822Z,91.20
2017-07-30T07:03:41.014Z,91.60
2017-07-30T07:06:09.180Z,91.90
2017-07-30T07:08:37.333Z,92.60
2017-07-30T07:11:05.524Z,92.70
2017-07-30T07:13:33.675Z,93.10
2017-07-30T07:16:01.841Z,93.50
2017-07-30T07:18:30.041Z,93.70
2017-07-30T07:20:58.210Z,93.60
2017-07-30T07:23:26.355Z,93.70
2017-07-30T07:25:54.531Z,93.90
2017-07-30T07:28:22.697Z,93.90
2017-07-30T07:30:50.850Z,93.90
2017-07-30T07:33:19.045Z,94.30
2017-07-30T07:35:47.224Z,93.90
2017-07-30T07:38:15.373Z,93.30
2017-07-30T07:40:43.570Z,93.30
2017-07-30T07:43:11.737Z,93.00
2017-07-30T07:45:40.657Z,92.60
2017-07-30T07:48:08.838Z,92.90
2017-07-30T07:50:37.005Z,92.60
2017-07-30T07:53:05.173Z,92.10
2017-07-30T07:55:33.348Z,91.60
2017-07-30T07:58:01.516Z,91.80
2017-07-30T08:00:29.682Z,91.00
2017-07-30T08:02:57.885Z,90.40
2017-07-30T08:05:26.057Z,89.60
2017-07-30T08:07:54.201Z,86.40
2017-07-30T08:10:23.183Z,84.40
2017-07-30T08:12:58.091Z,84.10
2017-07-30T08:15:26.293Z,84.00
2017-07-30T08:17:55.218Z,81.20
2017-07-30T08:20:23.385Z,81.20
2017-07-30T08:22:51.561Z,79.10
2017-07-30T08:25:19.717Z,77.00
2017-07-30T08:27:47.892Z,76.50
2017-07-30T08:30:16.075Z,73.60
2017-07-30T08:32:44.253Z,68.30
2017-07-30T08:35:12.428Z,64.90
2017-07-30T08:37:40.607Z,61.00
2017-07-30T08:40:08.773Z,59.00
2017-07-30T08:42:36.922Z,56.70
2017-07-30T08:45:05.882Z,58.70
2017-07-30T08:47:34.054Z,58.10
2017-07-30T08:50:02.204Z,59.20
2017-07-30T08:52:30.378Z,57.20
2017-07-30T08:54:58.527Z,57.10
2017-07-30T08:57:26.681Z,56.60
2017-07-30T08:59:55.653Z,60.90
2017-07-30T09:02:23.841Z,61.10
2017-07-30T09:04:52.002Z,62.50
2017-07-30T09:07:20.219Z,63.30
2017-07-30T09:09:48.398Z,60.10
2017-07-30T09:12:16.553Z,57.70
2017-07-30T09:14:45.517Z,60.20
2017-07-30T09:17:13.721Z,60.20
2017-07-30T09:19:42.643Z,63.00
2017-07-30T09:22:10.830Z,63.00
2017-07-30T09:24:38.990Z,62.80
2017-07-30T09:27:07.149Z,62.70
2017-07-30T09:29:35.362Z,60.50
2017-07-30T09:32:03.534Z,57.20
2017-07-30T09:34:31.694Z,55.80
2017-07-30T09:36:59.879Z,52.90
2017-07-30T09:39:28.051Z,50.40
2017-07-30T09:41:56.233Z,49.30
2017-07-30T09:44:24.406Z,47.20
2017-07-30T09:46:52.558Z,45.70
2017-07-30T09:49:20.726Z,46.50
2017-07-30T09:51:49.678Z,44.70
2017-07-30T09:54:17.853Z,44.60
2017-07-30T09:56:46.051Z,43.90
2017-07-30T09:59:14.246Z,46.40
2017-07-30T10:01:43.182Z,49.30
2017-07-30T10:04:11.351Z,49.20
2017-07-30T10:06:39.531Z,50.50
2017-07-30T10:09:07.701Z,51.80
2017-07-30T10:11:35.858Z,51.90
2017-07-30T10:14:04.035Z,48.80
2017-07-30T10:16:32.187Z,46.80
2017-07-30T10:19:00.343Z,45.50
2017-07-30T10:21:29.298Z,42.80
2017-07-30T10:23:57.465Z,42.70
2017-07-30T10:26:25.634Z,44.70
2017-07-30T10:28:53.822Z,46.10
2017-07-30T10:31:21.991Z,48.40
2017-07-30T10:33:50.163Z,51.10
2017-07-30T10:36:18.366Z,53.00
2017-07-30T10:38:46.523Z,53.80
2017-07-30T10:41:14.693Z,52.70
2017-07-30T10:43:42.872Z,50.60
2017-07-30T10:46:11.025Z,49.20
2017-07-30T10:48:39.189Z,46.40
2017-07-30T10:51:07.370Z,42.90
2017-07-30T10:53:35.564Z,40.30
2017-07-30T10:56:03.749Z,38.20
2017-07-30T10:58:31.946Z,38.30
2017-07-30T11:01:00.120Z,35.60
2017-07-30T11:03:28.270Z,32.80
2017-07-30T11:05:56.444Z,33.70
2017-07-30T11:08:24.592Z,32.10
2017-07-30T11:10:52.759Z,33.10
2017-07-30T11:13:20.957Z,35.40
2017-07-30T11:15:49.102Z,36.80
2017-07-30T11:18:17.282Z,37.60
2017-07-30T11:20:45.497Z,38.00
2017-07-30T11:23:13.662Z,37.80
2017-07-30T11:25:41.821Z,39.80
2017-07-30T11:28:10.022Z,40.30
2017-07-30T11:30:38.166Z,40.20
2017-07-30T11:33:06.310Z,37.50
2017-07-30T11:35:34.483Z,36.70
2017-07-30T11:38:02.660Z,35.10
2017-07-30T11:40:30.838Z,35.30
2017-07-30T11:42:59.006Z,35.70
2017-07-30T11:45:27.944Z,34.50
2017-07-30T11:47:56.107Z,34.50
2017-07-30T11:50:24.277Z,34.90
2017-07-30T11:52:52.481Z,36.60
2017-07-30T11:55:20.630Z,36.00
2017-07-30T11:57:48.819Z,34.30
2017-07-30T12:00:17.005Z,36.20
2017-07-30T12:02:45.156Z,35.80
2017-07-30T12:05:13.353Z,36.50
2017-07-30T12:07:41.521Z,38.00
2017-07-30T12:10:09.700Z,38.10
2017-07-30T12:12:43.703Z,38.80
2017-07-30T12:15:11.884Z,39.00
2017-07-30T12:17:40.061Z,39.80
2017-07-30T12:20:08.248Z,41.60
2017-07-30T12:22:36.399Z,41.70
2017-07-30T12:25:04.592Z,42.70
2017-07-30T12:27:32.770Z,41.80
2017-07-30T12:30:00.964Z,42.70
2017-07-30T12:32:29.133Z,41.20
2017-07-30T12:34:57.288Z,42.20
2017-07-30T12:37:25.459Z,41.20
2017-07-30T12:39:53.623Z,42.40
2017-07-30T12:42:21.821Z,42.10
2017-07-30T12:44:49.983Z,42.80
2017-07-30T12:47:18.159Z,43.10
2017-07-30T12:49:46.336Z,42.60
2017-07-30T12:52:14.511Z,43.30
2017-07-30T12:54:42.700Z,43.10
2017-07-30T12:57:10.877Z,42.60
2017-07-30T12:59:39.041Z,43.00
2017-07-30T13:02:07.227Z,42.30
2017-07-30T13:04:36.150Z,42.10
2017-07-30T13:07:04.348Z,42.10
2017-07-30T13:09:32.536Z,43.10
2017-07-30T13:12:00.713Z,42.90
2017-07-30T13:14:28.885Z,41.90
2017-07-30T13:16:57.061Z,41.90
2017-07-30T13:19:25.264Z,43.10
2017-07-30T13:21:53.437Z,43.50
2017-07-30T13:24:21.621Z,43.10
2017-07-30T13:26:50.563Z,43.60
2017-07-30T13:29:18.743Z,42.90
2017-07-30T13:31:46.912Z,43.10
2017-07-30T13:34:15.101Z,43.40
2017-07-30T13:36:43.303Z,43.00
2017-07-30T13:39:12.281Z,44.80
2017-07-30T13:41:40.441Z,44.70
2017-07-30T13:44:08.599Z,44.10
2017-07-30T13:46:36.768Z,43.40
2017-07-30T13:49:04.932Z,43.50
2017-07-30T13:51:33.115Z,44.10
2017-07-30T13:54:01.274Z,45.60
2017-07-30T13:56:29.435Z,45.50
2017-07-30T13:58:58.376Z,44.80
2017-07-30T14:01:26.536Z,44.80
2017-07-30T14:03:54.709Z,44.50
2017-07-30T14:06:22.858Z,44.40
2017-07-30T14:08:51.047Z,44.80
2017-07-30T14:11:19.222Z,45.10
2017-07-30T14:13:47.381Z,45.00
2017-07-30T14:16:16.325Z,43.60
2017-07-30T14:18:44.473Z,43.60
2017-07-30T14:21:12.648Z,42.40
2017-07-30T14:23:40.823Z,43.40
2017-07-30T14:26:08.970Z,42.90
2017-07-30T14:28:37.944Z,42.10
2017-07-30T14:31:06.113Z,42.00
2017-07-30T14:33:34.270Z,41.90
2017-07-30T14:36:02.450Z,42.60
2017-07-30T14:38:30.599Z,42.40
2017-07-30T14:40:58.797Z,42.50
2017-07-30T14:43:26.958Z,41.70
2017-07-30T14:45:55.114Z,41.00
2017-07-30T14:48:23.287Z,41.20
2017-07-30T14:50:51.458Z,41.40
2017-07-30T14:53:19.669Z,40.90
2017-07-30T14:55:47.824Z,39.60
2017-07-30T14:58:16.002Z,39.10
2017-07-30T15:00:44.196Z,38.30
2017-07-30T15:03:12.368Z,37.70
2017-07-30T15:05:40.541Z,37.80
2017-07-30T15:08:08.689Z,38.40
2017-07-30T15:10:36.845Z,37.00
2017-07-30T15:13:05.026Z,36.80
2017-07-30T15:15:33.209Z,38.40
2017-07-30T15:18:01.411Z,38.40
2017-07-30T15:20:29.577Z,38.00
2017-07-30T15:22:57.756Z,37.70
2017-07-30T15:25:25.927Z,38.90
2017-07-30T15:27:54.083Z,39.90
2017-07-30T15:30:22.293Z,39.60
2017-07-30T15:32:50.464Z,39.70
2017-07-30T15:35:18.641Z,39.20
2017-07-30T15:37:46.837Z,40.40
2017-07-30T15:40:15.777Z,41.00
2017-07-30T15:42:43.950Z,40.70
2017-07-30T15:45:12.094Z,41.50
2017-07-30T15:47:41.012Z,41.30
2017-07-30T15:50:09.183Z,41.30
2017-07-30T15:52:37.346Z,41.30
2017-07-30T15:55:05.534Z,42.40
2017-07-30T15:57:33.709Z,44.20
2017-07-30T16:00:01.863Z,45.10
2017-07-30T16:02:30.807Z,46.60
2017-07-30T16:04:59.000Z,46.60
2017-07-30T16:07:27.964Z,48.00
2017-07-30T16:09:56.121Z,47.50
2017-07-30T16:12:24.279Z,47.80
2017-07-30T16:14:52.445Z,48.70
2017-07-30T16:17:21.370Z,49.20
2017-07-30T16:19:49.554Z,49.10
2017-07-30T16:22:17.731Z,49.80
2017-07-30T16:24:45.909Z,49.50
2017-07-30T16:27:14.112Z,49.30
2017-07-30T16:29:42.276Z,49.50
2017-07-30T16:32:10.450Z,50.10
2017-07-30T16:34:38.622Z,50.70
2017-07-30T16:37:06.765Z,50.80
2017-07-30T16:39:34.944Z,51.20
2017-07-30T16:42:03.120Z,51.60
2017-07-30T16:44:31.302Z,52.40
2017-07-30T16:46:59.469Z,52.80
2017-07-30T16:49:27.636Z,52.40
2017-07-30T16:51:55.809Z,52.20
2017-07-30T16:54:23.972Z,52.10
2017-07-30T16:56:52.169Z,52.00
2017-07-30T16:59:20.322Z,52.00
2017-07-30T17:01:48.466Z,52.60
2017-07-30T17:04:16.663Z,52.70
2017-07-30T17:06:44.834Z,52.90
2017-07-30T17:09:13.016Z,53.10
2017-07-30T17:11:41.166Z,53.10
2017-07-30T17:14:09.310Z,53.40
2017-07-30T17:16:37.470Z,53.90
2017-07-30T17:19:05.636Z,53.80
2017-07-30T17:21:33.847Z,54.20
2017-07-30T17:24:02.023Z,54.40
2017-07-30T17:26:30.178Z,54.50
2017-07-30T17:28:58.374Z,54.80
2017-07-30T17:31:26.540Z,55.30
2017-07-30T17:33:54.733Z,55.80
2017-07-30T17:36:22.897Z,55.80
2017-07-30T17:38:51.069Z,55.90
2017-07-30T17:41:19.261Z,56.20
2017-07-30T17:43:48.199Z,57.00
2017-07-30T17:46:16.372Z,56.30
2017-07-30T17:48:44.762Z,56.80
2017-07-30T17:51:12.905Z,57.10
2017-07-30T17:53:41.076Z,57.40
2017-07-30T17:56:10.031Z,57.80
2017-07-30T17:58:38.265Z,57.80
2017-07-30T18:01:07.390Z,58.10
2017-07-30T18:03:35.567Z,58.50
2017-07-30T18:06:03.741Z,58.50
2017-07-30T18:08:31.961Z,58.60
2017-07-30T18:11:00.153Z,58.80
2017-07-30T18:13:28.354Z,59.00
2017-07-30T18:15:56.547Z,59.10
2017-07-30T18:18:24.720Z,59.60
2017-07-30T18:20:52.904Z,59.40
2017-07-30T18:23:21.191Z,59.20
2017-07-30T18:25:49.410Z,59.50
2017-07-30T18:28:17.740Z,59.40
2017-07-30T18:30:45.915Z,59.00
2017-07-30T18:33:14.100Z,59.10
2017-07-30T18:35:42.277Z,58.90
2017-07-30T18:38:11.285Z,59.00
2017-07-30T18:40:39.538Z,58.70
2017-07-30T18:43:07.743Z,58.80
2017-07-30T18:45:36.018Z,58.40
2017-07-30T18:48:04.382Z,58.40
2017-07-30T18:50:32.669Z,58.70
2017-07-30T18:53:01.034Z,59.10
2017-07-30T18:55:30.176Z,60.00
2017-07-30T18:57:58.650Z,60.00
2017-07-30T19:00:27.066Z,60.50
2017-07-30T19:02:55.557Z,61.00
2017-07-30T19:05:23.957Z,61.60
2017-07-30T19:07:52.427Z,62.00
2017-07-30T19:10:20.915Z,62.00
2017-07-30T19:12:49.418Z,62.40
2017-07-30T19:15:17.952Z,62.40
2017-07-30T19:17:46.800Z,62.90
2017-07-30T19:20:15.392Z,63.60
2017-07-30T19:22:44.665Z,65.10
2017-07-30T19:25:13.145Z,64.20
2017-07-30T19:27:41.660Z,63.90
2017-07-30T19:30:10.124Z,63.70
2017-07-30T19:32:38.641Z,64.10
2017-07-30T19:35:07.126Z,64.70
2017-07-30T19:37:35.598Z,65.10
2017-07-30T19:40:04.848Z,65.90
2017-07-30T19:42:33.351Z,65.90
2017-07-30T19:45:01.828Z,66.50
2017-07-30T19:47:30.329Z,67.20
2017-07-30T19:49:58.813Z,68.10
2017-07-30T19:52:27.306Z,68.80
2017-07-30T19:54:55.803Z,69.20
2017-07-30T19:57:24.277Z,69.90
2017-07-30T19:59:52.488Z,70.30
2017-07-30T20:02:20.656Z,70.60
2017-07-30T20:04:48.856Z,71.00
2017-07-30T20:07:17.021Z,71.10
2017-07-30T20:09:45.190Z,71.40
2017-07-30T20:12:13.386Z,71.20
2017-07-30T20:14:42.320Z,70.50
2017-07-30T20:17:10.516Z,70.50
2017-07-30T20:19:38.680Z,70.60
2017-07-30T20:22:06.836Z,71.00
2017-07-30T20:24:35.029Z,70.80
2017-07-30T20:27:03.192Z,71.00
2017-07-30T20:29:31.386Z,70.80
2017-07-30T20:31:59.533Z,71.20
2017-07-30T20:34:27.705Z,71.20
2017-07-30T20:36:55.949Z,71.00
2017-07-30T20:39:25.037Z,71.30
2017-07-30T20:41:53.285Z,71.30
2017-07-30T20:44:21.434Z,71.30
2017-07-30T20:46:49.610Z,71.40
2017-07-30T20:49:17.801Z,71.40
2017-07-30T20:51:45.970Z,71.30
2017-07-30T20:54:14.278Z,71.20
2017-07-30T20:56:42.595Z,71.60
2017-07-30T20:59:10.747Z,71.90
2017-07-30T21:01:39.785Z,72.80
2017-07-30T21:04:07.985Z,71.80
2017-07-30T21:06:36.311Z,72.10
2017-07-30T21:09:05.227Z,72.30
2017-07-30T21:11:33.392Z,72.20
2017-07-30T21:14:01.557Z,72.10
2017-07-30T21:16:30.138Z,71.90
2017-07-30T21:18:58.340Z,72.20
2017-07-30T21:21:26.515Z,72.10
2017-07-30T21:23:54.662Z,72.10
2017-07-30T21:26:22.839Z,72.30
2017-07-30T21:28:51.012Z,72.50
2017-07-30T21:31:19.189Z,72.20
2017-07-30T21:33:47.351Z,72.20
2017-07-30T21:36:16.288Z,71.50
2017-07-30T21:38:44.455Z,71.50
2017-07-30T21:41:12.619Z,71.60
2017-07-30T21:43:40.828Z,71.80
2017-07-30T21:46:08.990Z,71.90
2017-07-30T21:48:37.134Z,72.00
2017-07-30T21:51:05.299Z,72.10
2017-07-30T21:53:33.481Z,71.90
2017-07-30T21:56:01.667Z,71.80
2017-07-30T21:58:29.813Z,72.20
2017-07-30T22:00:57.975Z,72.50
2017-07-30T22:03:26.143Z,72.20
2017-07-30T22:05:54.308Z,72.10
2017-07-30T22:08:22.484Z,72.70
2017-07-30T22:10:50.649Z,72.90
2017-07-30T22:13:18.794Z,73.00
2017-07-30T22:15:46.960Z,73.10
2017-07-30T22:18:15.106Z,73.20
2017-07-30T22:20:44.465Z,73.40
2017-07-30T22:23:12.619Z,73.30
2017-07-30T22:25:40.770Z,73.60
2017-07-30T22:28:08.962Z,73.70
2017-07-30T22:30:37.118Z,73.80
2017-07-30T22:33:05.287Z,73.90
2017-07-30T22:35:34.252Z,74.20
2017-07-30T22:38:02.421Z,74.20
2017-07-30T22:40:30.598Z,74.40
2017-07-30T22:42:58.783Z,74.60
2017-07-30T22:45:26.929Z,74.60
2017-07-30T22:47:55.082Z,74.70
2017-07-30T22:50:23.258Z,75.00
2017-07-30T22:52:51.425Z,75.20
2017-07-30T22:55:19.570Z,75.30
2017-07-30T22:57:48.562Z,75.50
2017-07-30T23:00:16.734Z,75.60
2017-07-30T23:02:45.669Z,75.50
2017-07-30T23:05:13.868Z,75.50
2017-07-30T23:07:42.010Z,75.90
2017-07-30T23:10:10.627Z,76.10
2017-07-30T23:12:40.218Z,76.20
2017-07-30T23:15:08.794Z,76.20
2017-07-30T23:17:37.025Z,76.20
2017-07-30T23:20:06.005Z,77.10
2017-07-30T23:22:34.150Z,76.30
2017-07-30T23:25:02.290Z,76.60
2017-07-30T23:27:30.486Z,76.80
2017-07-30T23:29:58.638Z,77.00
2017-07-30T23:32:26.794Z,76.90
2017-07-30T23:34:55.751Z,77.00
2017-07-30T23:37:23.916Z,76.90
2017-07-30T23:39:52.057Z,77.00
2017-07-30T23:42:20.237Z,77.00
2017-07-30T23:44:48.385Z,77.30
2017-07-30T23:47:16.552Z,77.20
2017-07-30T23:49:44.746Z,77.70
2017-07-30T23:52:12.917Z,78.10
2017-07-30T23:54:41.065Z,78.10
2017-07-30T23:57:09.364Z,77.80
2017-07-30T23:59:38.280Z,78.10
